sensor_id;sensor_type;location;lat;lon;timestamp;P1;durP1;ratioP1;P2;durP2;ratioP2
4001;SDS011;2015;48.670;9.060;2023-12-20T00:00:41;2.70;;;2.50;;
4001;SDS011;2015;48.670;9.060;2023-12-20T00:03:12;2.37;;;2.27;;
4001;SDS011;2015;48.670;9.060;2023-12-20T00:05:44;3.40;;;3.20;;
4001;SDS011;2015;48.670;9.060;2023-12-20T00:08:16;2.70;;;2.60;;
4001;SDS011;2015;48.670;9.060;2023-12-20T00:10:48;2.27;;;2.17;;
4001;SDS011;2015;48.670;9.060;2023-12-20T00:13:20;3.00;;;2.80;;
4001;SDS011;2015;48.670;9.060;2023-12-20T00:15:52;2.43;;;2.33;;
4001;SDS011;2015;48.670;9.060;2023-12-20T00:18:24;2.93;;;2.73;;
4001;SDS011;2015;48.670;9.060;2023-12-20T00:20:56;2.50;;;2.40;;
4001;SDS011;2015;48.670;9.060;2023-12-20T00:23:27;2.10;;;2.00;;
4001;SDS011;2015;48.670;9.060;2023-12-20T00:25:59;2.10;;;2.00;;
4001;SDS011;2015;48.670;9.060;2023-12-20T00:28:31;2.40;;;2.30;;
4001;SDS011;2015;48.670;9.060;2023-12-20T00:31:03;2.40;;;2.17;;
4001;SDS011;2015;48.670;9.060;2023-12-20T00:33:36;2.40;;;2.30;;
4001;SDS011;2015;48.670;9.060;2023-12-20T00:36:08;1.80;;;1.58;;
4001;SDS011;2015;48.670;9.060;2023-12-20T00:38:41;2.40;;;2.30;;
4001;SDS011;2015;48.670;9.060;2023-12-20T00:41:12;4.23;;;2.33;;
4001;SDS011;2015;48.670;9.060;2023-12-20T00:43:44;2.53;;;2.43;;
4001;SDS011;2015;48.670;9.060;2023-12-20T00:46:16;2.03;;;1.93;;
4001;SDS011;2015;48.670;9.060;2023-12-20T00:48:48;2.10;;;1.97;;
4001;SDS011;2015;48.670;9.060;2023-12-20T00:51:20;2.37;;;2.27;;
4001;SDS011;2015;48.670;9.060;2023-12-20T00:53:51;2.28;;;2.05;;
4001;SDS011;2015;48.670;9.060;2023-12-20T00:56:26;2.00;;;1.90;;
4001;SDS011;2015;48.670;9.060;2023-12-20T00:58:57;2.50;;;2.40;;
4001;SDS011;2015;48.670;9.060;2023-12-20T01:01:29;2.30;;;2.20;;
4001;SDS011;2015;48.670;9.060;2023-12-20T01:04:01;2.13;;;2.03;;
4001;SDS011;2015;48.670;9.060;2023-12-20T01:06:33;2.47;;;2.37;;
4001;SDS011;2015;48.670;9.060;2023-12-20T01:09:05;1.70;;;1.60;;
4001;SDS011;2015;48.670;9.060;2023-12-20T01:11:37;2.30;;;2.17;;
4001;SDS011;2015;48.670;9.060;2023-12-20T01:14:08;2.60;;;2.10;;
4001;SDS011;2015;48.670;9.060;2023-12-20T01:16:40;2.60;;;2.50;;
4001;SDS011;2015;48.670;9.060;2023-12-20T01:19:12;1.93;;;1.83;;
4001;SDS011;2015;48.670;9.060;2023-12-20T01:21:45;2.00;;;1.90;;
4001;SDS011;2015;48.670;9.060;2023-12-20T01:24:16;2.70;;;2.50;;
4001;SDS011;2015;48.670;9.060;2023-12-20T01:26:48;2.60;;;2.40;;
4001;SDS011;2015;48.670;9.060;2023-12-20T01:29:20;2.20;;;2.10;;
4001;SDS011;2015;48.670;9.060;2023-12-20T01:31:52;1.87;;;1.77;;
4001;SDS011;2015;48.670;9.060;2023-12-20T01:34:24;2.30;;;2.20;;
4001;SDS011;2015;48.670;9.060;2023-12-20T01:36:56;2.40;;;2.30;;
4001;SDS011;2015;48.670;9.060;2023-12-20T01:39:28;2.27;;;2.17;;
4001;SDS011;2015;48.670;9.060;2023-12-20T01:42:00;2.10;;;2.00;;
4001;SDS011;2015;48.670;9.060;2023-12-20T01:44:32;2.70;;;2.60;;
4001;SDS011;2015;48.670;9.060;2023-12-20T01:47:04;2.70;;;2.60;;
4001;SDS011;2015;48.670;9.060;2023-12-20T01:49:36;2.63;;;2.43;;
4001;SDS011;2015;48.670;9.060;2023-12-20T01:52:08;2.20;;;2.10;;
4001;SDS011;2015;48.670;9.060;2023-12-20T01:54:43;2.97;;;2.77;;
4001;SDS011;2015;48.670;9.060;2023-12-20T01:57:15;2.07;;;1.97;;
4001;SDS011;2015;48.670;9.060;2023-12-20T01:59:47;2.40;;;2.20;;
4001;SDS011;2015;48.670;9.060;2023-12-20T02:02:19;1.90;;;1.80;;
4001;SDS011;2015;48.670;9.060;2023-12-20T02:04:51;3.63;;;2.50;;
4001;SDS011;2015;48.670;9.060;2023-12-20T02:07:23;2.50;;;2.30;;
4001;SDS011;2015;48.670;9.060;2023-12-20T02:09:56;1.80;;;1.70;;
4001;SDS011;2015;48.670;9.060;2023-12-20T02:12:28;2.20;;;2.10;;
4001;SDS011;2015;48.670;9.060;2023-12-20T02:14:59;1.50;;;1.40;;
4001;SDS011;2015;48.670;9.060;2023-12-20T02:17:31;3.00;;;2.37;;
4001;SDS011;2015;48.670;9.060;2023-12-20T02:20:04;2.20;;;2.10;;
4001;SDS011;2015;48.670;9.060;2023-12-20T02:22:37;2.33;;;2.13;;
4001;SDS011;2015;48.670;9.060;2023-12-20T02:25:09;2.43;;;2.33;;
4001;SDS011;2015;48.670;9.060;2023-12-20T02:27:40;2.03;;;1.93;;
4001;SDS011;2015;48.670;9.060;2023-12-20T02:30:13;2.53;;;2.43;;
4001;SDS011;2015;48.670;9.060;2023-12-20T02:32:45;1.90;;;1.80;;
4001;SDS011;2015;48.670;9.060;2023-12-20T02:35:17;1.40;;;1.30;;
4001;SDS011;2015;48.670;9.060;2023-12-20T02:37:49;1.70;;;1.60;;
4001;SDS011;2015;48.670;9.060;2023-12-20T02:40:21;2.23;;;2.13;;
4001;SDS011;2015;48.670;9.060;2023-12-20T02:42:53;2.10;;;2.00;;
4001;SDS011;2015;48.670;9.060;2023-12-20T02:45:25;2.27;;;2.07;;
4001;SDS011;2015;48.670;9.060;2023-12-20T02:47:58;1.80;;;1.70;;
4001;SDS011;2015;48.670;9.060;2023-12-20T02:50:30;2.00;;;1.90;;
4001;SDS011;2015;48.670;9.060;2023-12-20T02:53:02;2.00;;;1.90;;
4001;SDS011;2015;48.670;9.060;2023-12-20T02:55:34;2.13;;;2.03;;
4001;SDS011;2015;48.670;9.060;2023-12-20T02:58:05;2.00;;;1.90;;
4001;SDS011;2015;48.670;9.060;2023-12-20T03:00:37;1.60;;;1.50;;
4001;SDS011;2015;48.670;9.060;2023-12-20T03:03:09;1.67;;;1.57;;
4001;SDS011;2015;48.670;9.060;2023-12-20T03:05:41;1.47;;;1.37;;
4001;SDS011;2015;48.670;9.060;2023-12-20T03:08:13;1.40;;;1.30;;
4001;SDS011;2015;48.670;9.060;2023-12-20T03:10:45;1.50;;;1.40;;
4001;SDS011;2015;48.670;9.060;2023-12-20T03:13:16;1.90;;;1.80;;
4001;SDS011;2015;48.670;9.060;2023-12-20T03:15:48;1.50;;;1.40;;
4001;SDS011;2015;48.670;9.060;2023-12-20T03:18:20;1.60;;;1.50;;
4001;SDS011;2015;48.670;9.060;2023-12-20T03:20:52;1.47;;;1.37;;
4001;SDS011;2015;48.670;9.060;2023-12-20T03:23:23;0.90;;;0.80;;
4001;SDS011;2015;48.670;9.060;2023-12-20T03:25:56;1.37;;;1.27;;
4001;SDS011;2015;48.670;9.060;2023-12-20T03:28:28;1.70;;;1.60;;
4001;SDS011;2015;48.670;9.060;2023-12-20T03:31:00;1.40;;;1.30;;
4001;SDS011;2015;48.670;9.060;2023-12-20T03:33:34;1.30;;;1.20;;
4001;SDS011;2015;48.670;9.060;2023-12-20T03:36:05;1.93;;;1.83;;
4001;SDS011;2015;48.670;9.060;2023-12-20T03:38:37;1.60;;;1.50;;
4001;SDS011;2015;48.670;9.060;2023-12-20T03:41:09;1.40;;;1.30;;
4001;SDS011;2015;48.670;9.060;2023-12-20T03:43:42;1.20;;;1.10;;
4001;SDS011;2015;48.670;9.060;2023-12-20T03:46:14;1.67;;;1.57;;
4001;SDS011;2015;48.670;9.060;2023-12-20T03:48:46;1.30;;;1.20;;
4001;SDS011;2015;48.670;9.060;2023-12-20T03:51:18;1.40;;;1.30;;
4001;SDS011;2015;48.670;9.060;2023-12-20T03:53:49;1.40;;;1.30;;
4001;SDS011;2015;48.670;9.060;2023-12-20T03:56:21;0.80;;;0.60;;
4001;SDS011;2015;48.670;9.060;2023-12-20T03:58:53;1.40;;;1.30;;
4001;SDS011;2015;48.670;9.060;2023-12-20T04:01:24;1.43;;;1.33;;
4001;SDS011;2015;48.670;9.060;2023-12-20T04:03:57;1.20;;;1.10;;
4001;SDS011;2015;48.670;9.060;2023-12-20T04:06:29;1.67;;;1.57;;
4001;SDS011;2015;48.670;9.060;2023-12-20T04:09:01;1.30;;;1.20;;
4001;SDS011;2015;48.670;9.060;2023-12-20T04:11:32;1.13;;;1.03;;
4001;SDS011;2015;48.670;9.060;2023-12-20T04:14:04;1.40;;;1.15;;
4001;SDS011;2015;48.670;9.060;2023-12-20T04:16:36;0.90;;;0.90;;
4001;SDS011;2015;48.670;9.060;2023-12-20T04:19:08;1.20;;;1.10;;
4001;SDS011;2015;48.670;9.060;2023-12-20T04:21:40;1.10;;;1.00;;
4001;SDS011;2015;48.670;9.060;2023-12-20T04:24:12;1.10;;;1.10;;
4001;SDS011;2015;48.670;9.060;2023-12-20T04:26:43;1.27;;;1.17;;
4001;SDS011;2015;48.670;9.060;2023-12-20T04:29:15;0.80;;;0.70;;
4001;SDS011;2015;48.670;9.060;2023-12-20T04:31:47;2.07;;;1.20;;
4001;SDS011;2015;48.670;9.060;2023-12-20T04:34:19;1.37;;;1.27;;
4001;SDS011;2015;48.670;9.060;2023-12-20T04:36:51;1.00;;;1.00;;
4001;SDS011;2015;48.670;9.060;2023-12-20T04:39:23;1.00;;;1.00;;
4001;SDS011;2015;48.670;9.060;2023-12-20T04:41:55;1.50;;;1.40;;
4001;SDS011;2015;48.670;9.060;2023-12-20T04:44:27;1.30;;;1.20;;
4001;SDS011;2015;48.670;9.060;2023-12-20T04:46:59;1.10;;;1.10;;
4001;SDS011;2015;48.670;9.060;2023-12-20T04:49:31;1.20;;;1.10;;
4001;SDS011;2015;48.670;9.060;2023-12-20T04:52:03;1.10;;;1.10;;
4001;SDS011;2015;48.670;9.060;2023-12-20T04:54:35;2.03;;;1.50;;
4001;SDS011;2015;48.670;9.060;2023-12-20T04:57:07;1.97;;;1.17;;
4001;SDS011;2015;48.670;9.060;2023-12-20T04:59:39;1.30;;;1.20;;
4001;SDS011;2015;48.670;9.060;2023-12-20T05:02:10;0.93;;;0.93;;
4001;SDS011;2015;48.670;9.060;2023-12-20T05:04:42;1.30;;;1.20;;
4001;SDS011;2015;48.670;9.060;2023-12-20T05:07:14;1.40;;;1.30;;
4001;SDS011;2015;48.670;9.060;2023-12-20T05:09:46;1.00;;;1.00;;
4001;SDS011;2015;48.670;9.060;2023-12-20T05:12:18;1.30;;;1.20;;
4001;SDS011;2015;48.670;9.060;2023-12-20T05:14:51;1.00;;;1.00;;
4001;SDS011;2015;48.670;9.060;2023-12-20T05:17:23;1.70;;;1.60;;
4001;SDS011;2015;48.670;9.060;2023-12-20T05:19:55;1.10;;;1.00;;
4001;SDS011;2015;48.670;9.060;2023-12-20T05:22:27;0.85;;;0.70;;
4001;SDS011;2015;48.670;9.060;2023-12-20T05:24:59;1.33;;;1.23;;
4001;SDS011;2015;48.670;9.060;2023-12-20T05:27:31;1.40;;;1.30;;
4001;SDS011;2015;48.670;9.060;2023-12-20T05:30:02;1.30;;;1.20;;
4001;SDS011;2015;48.670;9.060;2023-12-20T05:32:36;1.77;;;1.67;;
4001;SDS011;2015;48.670;9.060;2023-12-20T05:35:08;1.90;;;1.20;;
4001;SDS011;2015;48.670;9.060;2023-12-20T05:37:39;1.77;;;1.67;;
4001;SDS011;2015;48.670;9.060;2023-12-20T05:40:11;1.50;;;1.40;;
4001;SDS011;2015;48.670;9.060;2023-12-20T05:42:43;1.77;;;1.30;;
4001;SDS011;2015;48.670;9.060;2023-12-20T05:45:15;2.10;;;1.50;;
4001;SDS011;2015;48.670;9.060;2023-12-20T05:47:47;1.97;;;1.87;;
4001;SDS011;2015;48.670;9.060;2023-12-20T05:50:19;1.80;;;1.70;;
4001;SDS011;2015;48.670;9.060;2023-12-20T05:52:52;2.17;;;1.97;;
4001;SDS011;2015;48.670;9.060;2023-12-20T05:55:24;1.60;;;1.42;;
4001;SDS011;2015;48.670;9.060;2023-12-20T05:57:56;2.43;;;1.80;;
4001;SDS011;2015;48.670;9.060;2023-12-20T06:00:28;1.70;;;1.60;;
4001;SDS011;2015;48.670;9.060;2023-12-20T06:03:00;1.80;;;1.70;;
4001;SDS011;2015;48.670;9.060;2023-12-20T06:05:32;1.40;;;1.30;;
4001;SDS011;2015;48.670;9.060;2023-12-20T06:08:04;1.40;;;1.30;;
4001;SDS011;2015;48.670;9.060;2023-12-20T06:10:36;1.60;;;1.50;;
4001;SDS011;2015;48.670;9.060;2023-12-20T06:13:07;1.23;;;1.13;;
4001;SDS011;2015;48.670;9.060;2023-12-20T06:15:39;1.93;;;1.50;;
4001;SDS011;2015;48.670;9.060;2023-12-20T06:18:11;1.57;;;1.47;;
4001;SDS011;2015;48.670;9.060;2023-12-20T06:20:43;1.23;;;1.20;;
4001;SDS011;2015;48.670;9.060;2023-12-20T06:23:15;1.80;;;1.70;;
4001;SDS011;2015;48.670;9.060;2023-12-20T06:25:47;2.10;;;1.90;;
4001;SDS011;2015;48.670;9.060;2023-12-20T06:28:19;1.00;;;0.80;;
4001;SDS011;2015;48.670;9.060;2023-12-20T06:30:50;1.70;;;1.60;;
4001;SDS011;2015;48.670;9.060;2023-12-20T06:33:24;1.33;;;1.23;;
4001;SDS011;2015;48.670;9.060;2023-12-20T06:35:56;1.27;;;1.17;;
4001;SDS011;2015;48.670;9.060;2023-12-20T06:38:28;1.53;;;1.43;;
4001;SDS011;2015;48.670;9.060;2023-12-20T06:40:59;3.70;;;3.40;;
4001;SDS011;2015;48.670;9.060;2023-12-20T06:43:31;1.73;;;1.63;;
4001;SDS011;2015;48.670;9.060;2023-12-20T06:46:19;1.40;;;1.30;;
4001;SDS011;2015;48.670;9.060;2023-12-20T06:48:51;1.37;;;1.27;;
4001;SDS011;2015;48.670;9.060;2023-12-20T06:51:23;1.60;;;1.50;;
4001;SDS011;2015;48.670;9.060;2023-12-20T06:53:56;1.93;;;1.83;;
4001;SDS011;2015;48.670;9.060;2023-12-20T06:56:28;1.80;;;1.70;;
4001;SDS011;2015;48.670;9.060;2023-12-20T06:59:00;1.90;;;1.80;;
4001;SDS011;2015;48.670;9.060;2023-12-20T07:01:32;2.37;;;2.17;;
4001;SDS011;2015;48.670;9.060;2023-12-20T07:04:04;2.80;;;2.60;;
4001;SDS011;2015;48.670;9.060;2023-12-20T07:06:36;1.97;;;1.87;;
4001;SDS011;2015;48.670;9.060;2023-12-20T07:09:07;2.83;;;2.73;;
4001;SDS011;2015;48.670;9.060;2023-12-20T07:11:39;5.40;;;2.40;;
4001;SDS011;2015;48.670;9.060;2023-12-20T07:14:11;2.42;;;2.33;;
4001;SDS011;2015;48.670;9.060;2023-12-20T07:16:43;1.63;;;1.53;;
4001;SDS011;2015;48.670;9.060;2023-12-20T07:19:15;1.70;;;1.60;;
4001;SDS011;2015;48.670;9.060;2023-12-20T07:21:47;1.57;;;1.47;;
4001;SDS011;2015;48.670;9.060;2023-12-20T07:24:18;1.90;;;1.80;;
4001;SDS011;2015;48.670;9.060;2023-12-20T07:26:50;3.83;;;2.20;;
4001;SDS011;2015;48.670;9.060;2023-12-20T07:29:23;2.33;;;1.60;;
4001;SDS011;2015;48.670;9.060;2023-12-20T07:31:54;1.40;;;1.30;;
4001;SDS011;2015;48.670;9.060;2023-12-20T07:34:26;1.30;;;0.85;;
4001;SDS011;2015;48.670;9.060;2023-12-20T07:36:58;1.63;;;1.53;;
4001;SDS011;2015;48.670;9.060;2023-12-20T07:39:30;2.20;;;2.00;;
4001;SDS011;2015;48.670;9.060;2023-12-20T07:42:02;1.93;;;1.83;;
4001;SDS011;2015;48.670;9.060;2023-12-20T07:44:34;1.77;;;1.47;;
4001;SDS011;2015;48.670;9.060;2023-12-20T07:47:09;1.80;;;1.70;;
4001;SDS011;2015;48.670;9.060;2023-12-20T07:49:42;2.07;;;1.93;;
4001;SDS011;2015;48.670;9.060;2023-12-20T07:52:14;1.60;;;1.50;;
4001;SDS011;2015;48.670;9.060;2023-12-20T07:54:46;2.03;;;1.83;;
4001;SDS011;2015;48.670;9.060;2023-12-20T07:57:18;2.20;;;2.10;;
4001;SDS011;2015;48.670;9.060;2023-12-20T07:59:49;3.23;;;2.93;;
4001;SDS011;2015;48.670;9.060;2023-12-20T08:02:21;2.53;;;2.40;;
4001;SDS011;2015;48.670;9.060;2023-12-20T08:04:53;7.73;;;3.20;;
4001;SDS011;2015;48.670;9.060;2023-12-20T08:07:25;2.70;;;2.50;;
4001;SDS011;2015;48.670;9.060;2023-12-20T08:09:57;3.03;;;2.83;;
4001;SDS011;2015;48.670;9.060;2023-12-20T08:12:29;5.13;;;4.73;;
4001;SDS011;2015;48.670;9.060;2023-12-20T08:15:01;2.80;;;2.67;;
4001;SDS011;2015;48.670;9.060;2023-12-20T08:17:33;2.90;;;2.80;;
4001;SDS011;2015;48.670;9.060;2023-12-20T08:20:05;4.07;;;3.60;;
4001;SDS011;2015;48.670;9.060;2023-12-20T08:22:37;4.40;;;4.00;;
4001;SDS011;2015;48.670;9.060;2023-12-20T08:25:09;3.53;;;3.33;;
4001;SDS011;2015;48.670;9.060;2023-12-20T08:27:41;3.97;;;3.77;;
4001;SDS011;2015;48.670;9.060;2023-12-20T08:30:13;4.90;;;4.60;;
4001;SDS011;2015;48.670;9.060;2023-12-20T08:32:45;3.97;;;3.67;;
4001;SDS011;2015;48.670;9.060;2023-12-20T08:35:17;4.13;;;3.87;;
4001;SDS011;2015;48.670;9.060;2023-12-20T08:37:50;3.40;;;3.10;;
4001;SDS011;2015;48.670;9.060;2023-12-20T08:40:21;4.63;;;3.90;;
4001;SDS011;2015;48.670;9.060;2023-12-20T08:42:54;4.73;;;4.43;;
4001;SDS011;2015;48.670;9.060;2023-12-20T08:45:26;4.07;;;3.77;;
4001;SDS011;2015;48.670;9.060;2023-12-20T08:47:58;3.47;;;3.27;;
4001;SDS011;2015;48.670;9.060;2023-12-20T08:50:33;2.90;;;2.70;;
4001;SDS011;2015;48.670;9.060;2023-12-20T08:53:05;3.17;;;2.97;;
4001;SDS011;2015;48.670;9.060;2023-12-20T08:55:37;3.50;;;3.20;;
4001;SDS011;2015;48.670;9.060;2023-12-20T08:58:09;4.30;;;4.10;;
4001;SDS011;2015;48.670;9.060;2023-12-20T09:00:41;4.77;;;3.67;;
4001;SDS011;2015;48.670;9.060;2023-12-20T09:03:12;3.70;;;2.60;;
4001;SDS011;2015;48.670;9.060;2023-12-20T09:05:44;3.40;;;3.20;;
4001;SDS011;2015;48.670;9.060;2023-12-20T09:08:16;3.20;;;3.00;;
4001;SDS011;2015;48.670;9.060;2023-12-20T09:10:48;3.63;;;3.43;;
4001;SDS011;2015;48.670;9.060;2023-12-20T09:13:20;3.50;;;3.30;;
4001;SDS011;2015;48.670;9.060;2023-12-20T09:15:56;3.27;;;3.10;;
4001;SDS011;2015;48.670;9.060;2023-12-20T09:18:28;3.70;;;2.50;;
4001;SDS011;2015;48.670;9.060;2023-12-20T09:21:00;3.60;;;3.30;;
4001;SDS011;2015;48.670;9.060;2023-12-20T09:23:31;2.63;;;2.50;;
4001;SDS011;2015;48.670;9.060;2023-12-20T09:26:03;3.40;;;3.20;;
4001;SDS011;2015;48.670;9.060;2023-12-20T09:28:35;3.45;;;2.40;;
4001;SDS011;2015;48.670;9.060;2023-12-20T09:31:08;3.07;;;2.87;;
4001;SDS011;2015;48.670;9.060;2023-12-20T09:33:40;2.90;;;2.80;;
4001;SDS011;2015;48.670;9.060;2023-12-20T09:36:12;3.47;;;3.17;;
4001;SDS011;2015;48.670;9.060;2023-12-20T09:38:44;3.43;;;3.13;;
4001;SDS011;2015;48.670;9.060;2023-12-20T09:41:17;3.10;;;2.90;;
4001;SDS011;2015;48.670;9.060;2023-12-20T09:43:51;2.60;;;2.50;;
4001;SDS011;2015;48.670;9.060;2023-12-20T09:46:25;4.40;;;2.77;;
4001;SDS011;2015;48.670;9.060;2023-12-20T09:49:01;2.40;;;2.30;;
4001;SDS011;2015;48.670;9.060;2023-12-20T09:51:33;2.30;;;2.10;;
4001;SDS011;2015;48.670;9.060;2023-12-20T09:54:05;3.00;;;2.80;;
4001;SDS011;2015;48.670;9.060;2023-12-20T09:56:37;3.67;;;2.30;;
4001;SDS011;2015;48.670;9.060;2023-12-20T09:59:09;2.80;;;2.60;;
4001;SDS011;2015;48.670;9.060;2023-12-20T10:01:41;3.47;;;2.20;;
4001;SDS011;2015;48.670;9.060;2023-12-20T10:04:14;2.20;;;2.00;;
4001;SDS011;2015;48.670;9.060;2023-12-20T10:07:02;3.80;;;2.10;;
4001;SDS011;2015;48.670;9.060;2023-12-20T10:09:37;4.27;;;2.70;;
4001;SDS011;2015;48.670;9.060;2023-12-20T10:12:09;3.00;;;2.80;;
4001;SDS011;2015;48.670;9.060;2023-12-20T10:14:41;3.77;;;1.90;;
4001;SDS011;2015;48.670;9.060;2023-12-20T10:17:13;4.27;;;2.30;;
4001;SDS011;2015;48.670;9.060;2023-12-20T10:19:45;4.55;;;2.42;;
4001;SDS011;2015;48.670;9.060;2023-12-20T10:22:17;6.57;;;2.63;;
4001;SDS011;2015;48.670;9.060;2023-12-20T10:24:48;3.77;;;2.20;;
4001;SDS011;2015;48.670;9.060;2023-12-20T10:27:20;3.47;;;2.70;;
4001;SDS011;2015;48.670;9.060;2023-12-20T10:29:52;4.80;;;2.20;;
4001;SDS011;2015;48.670;9.060;2023-12-20T10:32:25;4.17;;;2.40;;
4001;SDS011;2015;48.670;9.060;2023-12-20T10:34:58;5.47;;;1.92;;
4001;SDS011;2015;48.670;9.060;2023-12-20T10:37:31;7.33;;;2.83;;
4001;SDS011;2015;48.670;9.060;2023-12-20T10:40:06;5.83;;;2.27;;
4001;SDS011;2015;48.670;9.060;2023-12-20T10:42:39;3.53;;;2.47;;
4001;SDS011;2015;48.670;9.060;2023-12-20T10:45:12;3.03;;;2.83;;
4001;SDS011;2015;48.670;9.060;2023-12-20T10:47:46;6.57;;;2.67;;
4001;SDS011;2015;48.670;9.060;2023-12-20T10:50:20;2.70;;;2.50;;
4001;SDS011;2015;48.670;9.060;2023-12-20T10:52:52;7.10;;;3.70;;
4001;SDS011;2015;48.670;9.060;2023-12-20T10:55:27;4.10;;;3.83;;
4001;SDS011;2015;48.670;9.060;2023-12-20T10:58:18;3.00;;;2.80;;
4001;SDS011;2015;48.670;9.060;2023-12-20T11:00:55;3.37;;;3.17;;
4001;SDS011;2015;48.670;9.060;2023-12-20T11:03:32;2.40;;;2.30;;
4001;SDS011;2015;48.670;9.060;2023-12-20T11:06:09;3.53;;;2.70;;
4001;SDS011;2015;48.670;9.060;2023-12-20T11:14:43;3.20;;;3.00;;
4001;SDS011;2015;48.670;9.060;2023-12-20T11:17:18;4.37;;;3.40;;
4001;SDS011;2015;48.670;9.060;2023-12-20T11:22:32;4.40;;;2.40;;
4001;SDS011;2015;48.670;9.060;2023-12-20T11:25:10;2.40;;;2.20;;
4001;SDS011;2015;48.670;9.060;2023-12-20T11:27:43;4.57;;;3.00;;
4001;SDS011;2015;48.670;9.060;2023-12-20T11:30:17;4.07;;;2.97;;
4001;SDS011;2015;48.670;9.060;2023-12-20T11:32:49;3.00;;;2.80;;
4001;SDS011;2015;48.670;9.060;2023-12-20T11:35:21;2.50;;;2.30;;
4001;SDS011;2015;48.670;9.060;2023-12-20T11:37:53;2.37;;;2.20;;
4001;SDS011;2015;48.670;9.060;2023-12-20T11:40:25;3.53;;;2.53;;
4001;SDS011;2015;48.670;9.060;2023-12-20T11:42:57;2.30;;;1.87;;
4001;SDS011;2015;48.670;9.060;2023-12-20T11:45:28;2.80;;;2.60;;
4001;SDS011;2015;48.670;9.060;2023-12-20T11:48:01;2.30;;;2.20;;
4001;SDS011;2015;48.670;9.060;2023-12-20T11:50:34;3.50;;;2.50;;
4001;SDS011;2015;48.670;9.060;2023-12-20T11:53:05;4.20;;;2.50;;
4001;SDS011;2015;48.670;9.060;2023-12-20T11:55:37;2.90;;;2.70;;
4001;SDS011;2015;48.670;9.060;2023-12-20T11:58:09;3.20;;;2.40;;
4001;SDS011;2015;48.670;9.060;2023-12-20T12:00:41;3.70;;;2.90;;
4001;SDS011;2015;48.670;9.060;2023-12-20T12:03:14;5.87;;;2.97;;
4001;SDS011;2015;48.670;9.060;2023-12-20T12:05:47;9.90;;;2.87;;
4001;SDS011;2015;48.670;9.060;2023-12-20T12:08:20;3.70;;;3.40;;
4001;SDS011;2015;48.670;9.060;2023-12-20T12:10:52;2.90;;;2.80;;
4001;SDS011;2015;48.670;9.060;2023-12-20T12:13:24;2.70;;;2.60;;
4001;SDS011;2015;48.670;9.060;2023-12-20T12:15:58;3.20;;;3.00;;
4001;SDS011;2015;48.670;9.060;2023-12-20T12:18:30;7.20;;;2.83;;
4001;SDS011;2015;48.670;9.060;2023-12-20T12:21:03;10.00;;;3.03;;
4001;SDS011;2015;48.670;9.060;2023-12-20T12:23:43;2.43;;;2.33;;
4001;SDS011;2015;48.670;9.060;2023-12-20T12:26:15;5.47;;;2.73;;
4001;SDS011;2015;48.670;9.060;2023-12-20T12:28:47;2.80;;;2.50;;
4001;SDS011;2015;48.670;9.060;2023-12-20T12:31:21;3.40;;;2.40;;
4001;SDS011;2015;48.670;9.060;2023-12-20T12:33:57;3.20;;;2.40;;
4001;SDS011;2015;48.670;9.060;2023-12-20T12:36:29;2.83;;;2.43;;
4001;SDS011;2015;48.670;9.060;2023-12-20T12:39:04;10.33;;;3.23;;
4001;SDS011;2015;48.670;9.060;2023-12-20T12:41:36;4.17;;;2.83;;
4001;SDS011;2015;48.670;9.060;2023-12-20T12:44:08;2.50;;;2.40;;
4001;SDS011;2015;48.670;9.060;2023-12-20T12:46:48;2.83;;;2.40;;
4001;SDS011;2015;48.670;9.060;2023-12-20T12:49:22;3.73;;;2.20;;
4001;SDS011;2015;48.670;9.060;2023-12-20T12:51:54;3.03;;;2.80;;
4001;SDS011;2015;48.670;9.060;2023-12-20T12:54:29;5.03;;;2.40;;
4001;SDS011;2015;48.670;9.060;2023-12-20T12:57:01;2.30;;;2.20;;
4001;SDS011;2015;48.670;9.060;2023-12-20T12:59:32;2.77;;;2.67;;
4001;SDS011;2015;48.670;9.060;2023-12-20T13:02:07;3.10;;;2.50;;
4001;SDS011;2015;48.670;9.060;2023-12-20T13:04:42;4.33;;;3.17;;
4001;SDS011;2015;48.670;9.060;2023-12-20T13:07:14;2.30;;;2.10;;
4001;SDS011;2015;48.670;9.060;2023-12-20T13:09:47;3.10;;;2.90;;
4001;SDS011;2015;48.670;9.060;2023-12-20T13:12:19;2.47;;;2.27;;
4001;SDS011;2015;48.670;9.060;2023-12-20T13:14:52;3.30;;;3.00;;
4001;SDS011;2015;48.670;9.060;2023-12-20T13:17:25;2.77;;;2.57;;
4001;SDS011;2015;48.670;9.060;2023-12-20T13:19:59;3.50;;;2.37;;
4001;SDS011;2015;48.670;9.060;2023-12-20T13:22:31;3.53;;;2.08;;
4001;SDS011;2015;48.670;9.060;2023-12-20T13:25:03;3.43;;;2.37;;
4001;SDS011;2015;48.670;9.060;2023-12-20T13:27:36;2.73;;;2.53;;
4001;SDS011;2015;48.670;9.060;2023-12-20T13:30:08;17.50;;;3.10;;
4001;SDS011;2015;48.670;9.060;2023-12-20T13:32:41;2.83;;;2.63;;
4001;SDS011;2015;48.670;9.060;2023-12-20T13:35:13;5.17;;;2.70;;
4001;SDS011;2015;48.670;9.060;2023-12-20T13:37:45;2.73;;;2.50;;
4001;SDS011;2015;48.670;9.060;2023-12-20T13:40:17;3.50;;;2.15;;
4001;SDS011;2015;48.670;9.060;2023-12-20T13:42:49;2.50;;;2.40;;
4001;SDS011;2015;48.670;9.060;2023-12-20T13:45:21;7.80;;;4.43;;
4001;SDS011;2015;48.670;9.060;2023-12-20T13:47:53;2.57;;;2.37;;
4001;SDS011;2015;48.670;9.060;2023-12-20T13:50:25;2.53;;;2.23;;
4001;SDS011;2015;48.670;9.060;2023-12-20T13:52:57;2.90;;;2.73;;
4001;SDS011;2015;48.670;9.060;2023-12-20T13:55:29;4.50;;;1.70;;
4001;SDS011;2015;48.670;9.060;2023-12-20T13:58:01;2.73;;;2.53;;
4001;SDS011;2015;48.670;9.060;2023-12-20T14:00:34;2.80;;;2.70;;
4001;SDS011;2015;48.670;9.060;2023-12-20T14:03:07;3.40;;;1.90;;
4001;SDS011;2015;48.670;9.060;2023-12-20T14:05:40;2.80;;;2.70;;
4001;SDS011;2015;48.670;9.060;2023-12-20T14:08:12;4.47;;;2.33;;
4001;SDS011;2015;48.670;9.060;2023-12-20T14:10:44;2.60;;;2.30;;
4001;SDS011;2015;48.670;9.060;2023-12-20T14:13:16;2.90;;;2.70;;
4001;SDS011;2015;48.670;9.060;2023-12-20T14:15:48;2.53;;;2.33;;
4001;SDS011;2015;48.670;9.060;2023-12-20T14:18:20;6.10;;;2.50;;
4001;SDS011;2015;48.670;9.060;2023-12-20T14:20:52;2.50;;;2.30;;
4001;SDS011;2015;48.670;9.060;2023-12-20T14:23:25;1.90;;;1.80;;
4001;SDS011;2015;48.670;9.060;2023-12-20T14:25:56;5.40;;;2.60;;
4001;SDS011;2015;48.670;9.060;2023-12-20T14:28:30;2.50;;;1.88;;
4001;SDS011;2015;48.670;9.060;2023-12-20T14:31:02;2.50;;;2.30;;
4001;SDS011;2015;48.670;9.060;2023-12-20T14:33:34;2.53;;;2.37;;
4001;SDS011;2015;48.670;9.060;2023-12-20T14:36:06;2.43;;;2.33;;
4001;SDS011;2015;48.670;9.060;2023-12-20T14:38:38;3.40;;;2.70;;
4001;SDS011;2015;48.670;9.060;2023-12-20T14:41:11;3.60;;;2.63;;
4001;SDS011;2015;48.670;9.060;2023-12-20T14:43:42;2.33;;;2.13;;
4001;SDS011;2015;48.670;9.060;2023-12-20T14:46:14;3.40;;;2.20;;
4001;SDS011;2015;48.670;9.060;2023-12-20T14:48:46;2.50;;;2.30;;
4001;SDS011;2015;48.670;9.060;2023-12-20T14:51:19;2.40;;;2.30;;
4001;SDS011;2015;48.670;9.060;2023-12-20T14:53:51;2.60;;;2.40;;
4001;SDS011;2015;48.670;9.060;2023-12-20T14:56:26;3.30;;;2.60;;
4001;SDS011;2015;48.670;9.060;2023-12-20T14:58:57;2.50;;;2.40;;
4001;SDS011;2015;48.670;9.060;2023-12-20T15:01:33;2.80;;;2.40;;
4001;SDS011;2015;48.670;9.060;2023-12-20T15:04:05;5.40;;;2.73;;
4001;SDS011;2015;48.670;9.060;2023-12-20T15:06:37;3.40;;;2.40;;
4001;SDS011;2015;48.670;9.060;2023-12-20T15:09:09;3.93;;;2.40;;
4001;SDS011;2015;48.670;9.060;2023-12-20T15:11:41;3.23;;;2.93;;
4001;SDS011;2015;48.670;9.060;2023-12-20T15:14:13;2.40;;;2.20;;
4001;SDS011;2015;48.670;9.060;2023-12-20T15:16:50;6.87;;;3.40;;
4001;SDS011;2015;48.670;9.060;2023-12-20T15:19:22;4.33;;;3.90;;
4001;SDS011;2015;48.670;9.060;2023-12-20T15:21:54;3.10;;;2.97;;
4001;SDS011;2015;48.670;9.060;2023-12-20T15:24:26;2.97;;;2.30;;
4001;SDS011;2015;48.670;9.060;2023-12-20T15:27:00;2.70;;;2.50;;
4001;SDS011;2015;48.670;9.060;2023-12-20T15:29:31;2.40;;;2.20;;
4001;SDS011;2015;48.670;9.060;2023-12-20T15:32:03;6.27;;;4.00;;
4001;SDS011;2015;48.670;9.060;2023-12-20T15:34:36;4.10;;;3.65;;
4001;SDS011;2015;48.670;9.060;2023-12-20T15:37:07;3.97;;;3.77;;
4001;SDS011;2015;48.670;9.060;2023-12-20T15:39:40;3.57;;;3.27;;
4001;SDS011;2015;48.670;9.060;2023-12-20T15:42:12;2.73;;;2.53;;
4001;SDS011;2015;48.670;9.060;2023-12-20T15:44:44;2.90;;;2.80;;
4001;SDS011;2015;48.670;9.060;2023-12-20T15:47:16;3.87;;;3.30;;
4001;SDS011;2015;48.670;9.060;2023-12-20T15:49:47;4.70;;;3.43;;
4001;SDS011;2015;48.670;9.060;2023-12-20T15:52:20;5.20;;;3.60;;
4001;SDS011;2015;48.670;9.060;2023-12-20T15:54:52;4.03;;;3.73;;